createdAt,value
2022-12-01T00:00:18.724Z,41.00
2022-12-01T00:01:18.744Z,38.10
2022-12-01T00:02:18.902Z,34.10
2022-12-01T00:03:18.990Z,36.20
2022-12-01T00:04:18.679Z,36.60
2022-12-01T00:05:18.654Z,35.60
2022-12-01T00:06:18.675Z,33.40
2022-12-01T00:07:18.626Z,42.00
2022-12-01T00:08:18.923Z,36.60
2022-12-01T00:09:20.290Z,41.50
2022-12-01T00:10:18.606Z,38.20
2022-12-01T00:11:18.614Z,40.90
2022-12-01T00:12:18.604Z,37.50
2022-12-01T00:13:18.585Z,42.50
2022-12-01T00:14:18.834Z,38.70
2022-12-01T00:15:18.563Z,36.70
2022-12-01T00:16:18.560Z,37.90
2022-12-01T00:17:18.518Z,42.60
2022-12-01T00:18:18.538Z,42.50
2022-12-01T00:19:18.515Z,45.00
2022-12-01T00:20:18.827Z,44.10
2022-12-01T00:21:18.472Z,39.30
2022-12-01T00:22:18.495Z,41.50
2022-12-01T00:23:18.456Z,41.10
2022-12-01T00:24:18.483Z,44.50
2022-12-01T00:25:18.419Z,43.10
2022-12-01T00:26:18.728Z,41.40
2022-12-01T00:27:18.402Z,41.80
2022-12-01T00:28:18.418Z,46.30
2022-12-01T00:29:18.707Z,40.60
2022-12-01T00:30:18.397Z,41.50
2022-12-01T00:31:18.441Z,49.20
2022-12-01T00:32:18.352Z,40.80
2022-12-01T00:33:18.322Z,47.50
2022-12-01T00:34:18.330Z,43.00
2022-12-01T00:35:18.619Z,43.50
2022-12-01T00:36:18.334Z,45.30
2022-12-01T00:37:18.308Z,47.80
2022-12-01T00:38:18.300Z,45.50
2022-12-01T00:39:18.286Z,44.70
2022-12-01T00:40:18.581Z,42.40
2022-12-01T00:41:18.235Z,42.90
2022-12-01T00:42:18.232Z,46.80
2022-12-01T00:43:18.230Z,47.70
2022-12-01T00:44:18.209Z,51.70
2022-12-01T00:45:18.210Z,50.90
2022-12-01T00:46:18.601Z,50.00
2022-12-01T00:47:18.191Z,56.60
2022-12-01T00:48:18.190Z,49.40
2022-12-01T00:49:18.417Z,51.90
2022-12-01T00:50:18.140Z,51.20
2022-12-01T00:51:18.147Z,47.10
2022-12-01T00:52:18.140Z,49.60
2022-12-01T00:53:18.122Z,54.00
2022-12-01T00:54:18.430Z,53.70
2022-12-01T00:55:18.090Z,50.70
2022-12-01T00:56:18.066Z,54.90
2022-12-01T00:57:18.344Z,54.00
2022-12-01T00:58:18.071Z,52.40
2022-12-01T00:59:18.024Z,47.50
2022-12-01T01:00:18.023Z,51.80
2022-12-01T01:01:18.054Z,48.10
2022-12-01T01:02:18.074Z,48.00
2022-12-01T01:03:18.277Z,45.20
2022-12-01T01:04:17.977Z,45.90
2022-12-01T01:05:17.956Z,44.50
2022-12-01T01:06:17.956Z,45.80
2022-12-01T01:07:17.957Z,48.60
2022-12-01T01:08:18.204Z,46.60
2022-12-01T01:09:17.932Z,45.80
2022-12-01T01:10:17.906Z,48.60
2022-12-01T01:11:17.891Z,46.40
2022-12-01T01:12:17.904Z,43.50
2022-12-01T01:13:17.859Z,46.90
2022-12-01T01:14:18.194Z,46.30
2022-12-01T01:15:17.827Z,45.60
2022-12-01T01:16:17.926Z,49.10
2022-12-01T01:17:17.808Z,44.40
2022-12-01T01:18:17.818Z,43.30
2022-12-01T01:19:17.822Z,46.90
2022-12-01T01:20:17.801Z,49.70
2022-12-01T01:21:17.763Z,45.70
2022-12-01T01:22:17.769Z,46.30
2022-12-01T01:23:17.739Z,46.30
2022-12-01T01:24:17.778Z,44.90
2022-12-01T01:25:18.055Z,44.90
2022-12-01T01:26:17.736Z,47.70
2022-12-01T01:27:17.717Z,48.50
2022-12-01T01:28:17.717Z,44.00
2022-12-01T01:29:17.909Z,44.50
2022-12-01T01:30:17.674Z,46.80
2022-12-01T01:31:17.800Z,47.60
2022-12-01T01:32:17.893Z,42.80
2022-12-01T01:33:17.646Z,46.80
2022-12-01T01:34:17.636Z,43.90
2022-12-01T01:35:17.639Z,41.50
2022-12-01T01:36:17.879Z,43.10
2022-12-01T01:37:17.593Z,41.50
2022-12-01T01:38:17.606Z,42.90
2022-12-01T01:39:17.580Z,38.30
2022-12-01T01:40:17.577Z,35.80
2022-12-01T01:41:17.532Z,39.00
2022-12-01T01:42:17.569Z,37.30
2022-12-01T01:43:17.530Z,34.10
2022-12-01T01:44:17.532Z,31.40
2022-12-01T01:45:17.791Z,31.10
2022-12-01T01:46:17.598Z,34.00
2022-12-01T01:47:17.481Z,32.00
2022-12-01T01:48:17.481Z,36.40
2022-12-01T01:49:17.433Z,35.10
2022-12-01T01:50:17.465Z,35.20
2022-12-01T01:51:17.680Z,31.30
2022-12-01T01:52:17.668Z,33.00
2022-12-01T01:53:17.384Z,35.00
2022-12-01T01:54:17.728Z,30.00
2022-12-01T01:55:17.364Z,31.00
2022-12-01T01:56:17.389Z,33.70
2022-12-01T01:57:17.371Z,33.70
2022-12-01T01:58:17.343Z,33.20
2022-12-01T01:59:17.344Z,32.70
2022-12-01T02:00:17.683Z,35.00
2022-12-01T02:01:17.431Z,32.20
2022-12-01T02:02:17.343Z,29.90
2022-12-01T02:03:17.300Z,31.40
2022-12-01T02:04:17.295Z,32.80
2022-12-01T02:05:17.453Z,29.20
2022-12-01T02:06:17.245Z,28.60
2022-12-01T02:07:17.226Z,28.50
2022-12-01T02:08:17.253Z,31.70
2022-12-01T02:09:17.196Z,29.50
2022-12-01T02:10:17.232Z,27.60
2022-12-01T02:11:17.467Z,28.30
2022-12-01T02:12:17.185Z,27.90
2022-12-01T02:13:17.157Z,26.80
2022-12-01T02:14:19.635Z,27.50
2022-12-01T02:15:17.139Z,26.10
2022-12-01T02:16:17.523Z,28.00
2022-12-01T02:17:17.133Z,29.20
2022-12-01T02:18:17.135Z,26.50
2022-12-01T02:19:17.098Z,28.20
2022-12-01T02:20:17.071Z,27.00
2022-12-01T02:21:17.080Z,25.60
2022-12-01T02:22:17.367Z,29.40
2022-12-01T02:23:17.051Z,29.90
2022-12-01T02:24:17.058Z,26.70
2022-12-01T02:25:17.056Z,30.60
2022-12-01T02:26:17.011Z,28.20
2022-12-01T02:27:17.034Z,28.30
2022-12-01T02:28:17.245Z,28.10
2022-12-01T02:29:17.006Z,33.90
2022-12-01T02:30:16.983Z,30.50
2022-12-01T02:31:17.001Z,30.30
2022-12-01T02:32:23.620Z,28.10
2022-12-01T02:33:16.958Z,30.90
2022-12-01T02:34:16.912Z,29.40
2022-12-01T02:35:17.250Z,28.80
2022-12-01T02:36:16.891Z,29.00
2022-12-01T02:37:16.917Z,28.50
2022-12-01T02:38:16.875Z,31.80
2022-12-01T02:39:16.888Z,27.80
2022-12-01T02:40:17.172Z,30.70
2022-12-01T02:41:16.866Z,27.10
2022-12-01T02:42:16.850Z,25.50
2022-12-01T02:43:16.847Z,26.90
2022-12-01T02:44:16.792Z,27.10
2022-12-01T02:45:16.818Z,27.70
2022-12-01T02:46:17.165Z,27.90
2022-12-01T02:47:16.772Z,25.00
2022-12-01T02:48:16.786Z,25.10
2022-12-01T02:49:16.755Z,27.30
2022-12-01T02:50:16.748Z,25.20
2022-12-01T02:51:16.731Z,26.30
2022-12-01T02:52:17.024Z,25.60
2022-12-01T02:53:16.702Z,25.50
2022-12-01T02:54:16.697Z,25.00
2022-12-01T02:55:16.995Z,27.00
2022-12-01T02:56:16.654Z,27.70
2022-12-01T02:57:16.680Z,28.90
2022-12-01T02:58:16.661Z,31.80
2022-12-01T02:59:16.641Z,32.40
2022-12-01T03:00:16.608Z,29.60
2022-12-01T03:01:16.981Z,30.40
2022-12-01T03:02:16.762Z,28.70
2022-12-01T03:03:16.594Z,29.80
2022-12-01T03:04:16.574Z,26.70
2022-12-01T03:05:16.586Z,31.30
2022-12-01T03:06:16.536Z,26.60
2022-12-01T03:07:16.536Z,27.90
2022-12-01T03:08:16.516Z,29.80
2022-12-01T03:09:16.548Z,28.70
2022-12-01T03:10:16.801Z,29.60
2022-12-01T03:11:16.521Z,28.50
2022-12-01T03:12:16.465Z,28.50
2022-12-01T03:13:16.466Z,29.30
2022-12-01T03:14:16.484Z,30.40
2022-12-01T03:15:16.446Z,30.50
2022-12-01T03:16:16.796Z,31.50
2022-12-01T03:17:16.445Z,27.60
2022-12-01T03:18:16.397Z,28.70
2022-12-01T03:19:16.400Z,31.00
2022-12-01T03:20:16.707Z,31.50
2022-12-01T03:21:16.403Z,27.90
2022-12-01T03:22:16.381Z,32.40
2022-12-01T03:23:16.360Z,31.20
2022-12-01T03:24:16.338Z,31.60
2022-12-01T03:25:16.355Z,32.70
2022-12-01T03:26:16.315Z,32.40
2022-12-01T03:27:16.312Z,34.30
2022-12-01T03:28:23.561Z,32.80
2022-12-01T03:29:17.307Z,34.00
2022-12-01T03:30:16.261Z,35.40
2022-12-01T03:31:16.348Z,35.80
2022-12-01T03:32:16.257Z,34.40
2022-12-01T03:33:16.532Z,34.30
2022-12-01T03:34:16.210Z,31.30
2022-12-01T03:35:16.242Z,37.00
2022-12-01T03:36:16.217Z,34.10
2022-12-01T03:37:16.210Z,36.00
2022-12-01T03:38:16.207Z,30.70
2022-12-01T03:39:16.469Z,34.20
2022-12-01T03:40:16.170Z,40.40
2022-12-01T03:41:16.206Z,32.40
2022-12-01T03:42:16.112Z,38.70
2022-12-01T03:43:16.148Z,33.20
2022-12-01T03:44:16.093Z,36.90
2022-12-01T03:45:16.441Z,34.10
2022-12-01T03:46:16.111Z,38.30
2022-12-01T03:47:16.078Z,33.30
2022-12-01T03:48:16.078Z,37.30
2022-12-01T03:49:16.381Z,37.80
2022-12-01T03:50:16.048Z,35.80
2022-12-01T03:51:16.051Z,39.80
2022-12-01T03:52:16.029Z,40.10
2022-12-01T03:53:16.337Z,38.90
2022-12-01T03:54:16.239Z,40.40
2022-12-01T03:55:16.009Z,39.30
2022-12-01T03:56:15.980Z,37.60
2022-12-01T03:57:15.998Z,39.40
2022-12-01T03:58:15.932Z,35.60
2022-12-01T03:59:15.960Z,37.40
2022-12-01T04:00:16.250Z,37.40
2022-12-01T04:01:15.984Z,39.70
2022-12-01T04:02:15.891Z,37.80
2022-12-01T04:03:15.986Z,35.90
2022-12-01T04:04:15.891Z,35.80
2022-12-01T04:05:19.955Z,36.90
2022-12-01T04:06:17.073Z,40.30
2022-12-01T04:07:15.864Z,36.40
2022-12-01T04:08:15.841Z,34.40
2022-12-01T04:09:15.841Z,33.40
2022-12-01T04:10:16.042Z,35.50
2022-12-01T04:11:15.806Z,35.00
2022-12-01T04:12:15.777Z,34.30
2022-12-01T04:13:15.801Z,32.20
2022-12-01T04:14:15.981Z,32.60
2022-12-01T04:15:15.772Z,33.70
2022-12-01T04:16:15.791Z,32.70
2022-12-01T04:17:15.726Z,37.50
2022-12-01T04:18:15.698Z,37.50
2022-12-01T04:19:15.994Z,36.90
2022-12-01T04:20:15.703Z,32.80
2022-12-01T04:21:15.679Z,37.10
2022-12-01T04:22:15.686Z,30.90
2022-12-01T04:23:15.666Z,31.50
2022-12-01T04:24:15.628Z,32.30
2022-12-01T04:25:15.889Z,34.00
2022-12-01T04:26:15.993Z,42.00
2022-12-01T04:27:15.635Z,37.10
2022-12-01T04:28:15.608Z,32.50
2022-12-01T04:29:15.604Z,33.40
2022-12-01T04:30:15.587Z,35.80
2022-12-01T04:31:15.946Z,31.10
2022-12-01T04:32:15.565Z,30.90
2022-12-01T04:33:15.564Z,30.50
2022-12-01T04:34:15.509Z,35.70
2022-12-01T04:35:15.537Z,30.00
2022-12-01T04:36:15.526Z,34.40
2022-12-01T04:37:15.808Z,37.40
2022-12-01T04:38:15.468Z,34.30
2022-12-01T04:39:15.499Z,35.50
2022-12-01T04:40:15.452Z,28.40
2022-12-01T04:41:15.476Z,29.00
2022-12-01T04:42:15.422Z,30.30
2022-12-01T04:43:15.566Z,28.30
2022-12-01T04:44:15.431Z,30.70
2022-12-01T04:45:15.401Z,26.80
2022-12-01T04:46:15.410Z,29.20
2022-12-01T04:47:15.400Z,28.30
2022-12-01T04:48:15.352Z,28.40
2022-12-01T04:49:15.632Z,26.20
2022-12-01T04:50:15.358Z,30.60
2022-12-01T04:51:15.360Z,28.40
2022-12-01T04:52:15.302Z,27.30
2022-12-01T04:53:15.313Z,28.20
2022-12-01T04:54:15.315Z,28.60
2022-12-01T04:55:15.490Z,27.00
2022-12-01T04:56:15.253Z,24.10
2022-12-01T04:57:15.262Z,28.20
2022-12-01T04:58:15.234Z,25.00
2022-12-01T04:59:15.239Z,26.30
2022-12-01T05:00:15.243Z,26.30
2022-12-01T05:01:15.420Z,27.60
2022-12-01T05:02:15.276Z,24.50
2022-12-01T05:03:15.464Z,26.30
2022-12-01T05:04:15.193Z,24.70
2022-12-01T05:05:15.196Z,23.00
2022-12-01T05:06:15.144Z,26.90
2022-12-01T05:07:15.362Z,23.10
2022-12-01T05:08:15.141Z,24.10
2022-12-01T05:09:17.446Z,25.00
2022-12-01T05:10:15.112Z,22.80
2022-12-01T05:11:15.110Z,23.10
2022-12-01T05:12:15.102Z,24.40
2022-12-01T05:13:15.366Z,23.20
2022-12-01T05:14:15.048Z,24.50
2022-12-01T05:15:15.073Z,24.30
2022-12-01T05:16:15.121Z,25.40
2022-12-01T05:17:15.072Z,21.60
2022-12-01T05:18:15.084Z,24.80
2022-12-01T05:19:15.128Z,24.10
2022-12-01T05:20:14.978Z,21.20
2022-12-01T05:21:15.003Z,23.30
2022-12-01T05:22:15.167Z,25.20
2022-12-01T05:23:17.033Z,20.80
2022-12-01T05:24:14.928Z,21.90
2022-12-01T05:25:14.957Z,21.90
2022-12-01T05:26:14.936Z,23.20
2022-12-01T05:27:14.909Z,24.60
2022-12-01T05:28:15.013Z,23.80
2022-12-01T05:29:14.889Z,25.00
2022-12-01T05:30:14.864Z,22.40
2022-12-01T05:31:15.152Z,19.60
2022-12-01T05:32:14.842Z,22.40
2022-12-01T05:33:14.863Z,22.90
2022-12-01T05:34:14.836Z,20.80
2022-12-01T05:35:14.836Z,21.10
2022-12-01T05:36:14.992Z,22.30
2022-12-01T05:37:14.805Z,21.00
2022-12-01T05:38:14.780Z,21.30
2022-12-01T05:39:14.901Z,21.90
2022-12-01T05:40:14.775Z,20.90
2022-12-01T05:41:14.740Z,24.50
2022-12-01T05:42:14.720Z,21.70
2022-12-01T05:43:14.720Z,22.50
2022-12-01T05:44:14.700Z,22.60
2022-12-01T05:45:14.739Z,24.20
2022-12-01T05:46:14.926Z,22.60
2022-12-01T05:47:14.698Z,20.60
2022-12-01T05:48:14.679Z,22.20
2022-12-01T05:49:14.651Z,20.30
2022-12-01T05:50:14.621Z,21.90
2022-12-01T05:51:14.779Z,21.80
2022-12-01T05:52:14.623Z,22.90
2022-12-01T05:53:14.633Z,22.50
2022-12-01T05:54:14.610Z,22.20
2022-12-01T05:55:14.590Z,22.70
2022-12-01T05:56:14.556Z,25.00
2022-12-01T05:57:14.591Z,24.80
2022-12-01T05:58:14.566Z,25.10
2022-12-01T05:59:14.764Z,21.60
2022-12-01T06:00:14.541Z,25.30
2022-12-01T06:01:14.512Z,25.80
2022-12-01T06:02:14.603Z,25.20
2022-12-01T06:03:14.521Z,24.10
2022-12-01T06:04:14.619Z,25.80
2022-12-01T06:05:14.633Z,25.80
2022-12-01T06:06:14.657Z,25.10
2022-12-01T06:07:14.470Z,26.40
2022-12-01T06:08:14.416Z,28.70
2022-12-01T06:09:14.617Z,26.40
2022-12-01T06:10:14.396Z,26.40
2022-12-01T06:11:14.395Z,27.40
2022-12-01T06:12:14.400Z,25.90
2022-12-01T06:13:14.402Z,26.80
2022-12-01T06:14:14.346Z,25.80
2022-12-01T06:15:14.606Z,26.70
2022-12-01T06:16:14.366Z,22.90
2022-12-01T06:17:14.327Z,28.90
2022-12-01T06:18:14.305Z,27.00
2022-12-01T06:19:14.333Z,27.70
2022-12-01T06:20:14.302Z,27.00
2022-12-01T06:21:14.617Z,26.40
2022-12-01T06:22:14.284Z,26.80
2022-12-01T06:23:14.264Z,27.40
2022-12-01T06:24:14.229Z,27.50
2022-12-01T06:25:14.255Z,28.00
2022-12-01T06:26:14.468Z,28.00
2022-12-01T06:27:14.217Z,35.00
2022-12-01T06:28:14.629Z,30.40
2022-12-01T06:29:14.214Z,28.90
2022-12-01T06:30:14.186Z,30.70
2022-12-01T06:31:14.186Z,28.70
2022-12-01T06:32:14.167Z,34.90
2022-12-01T06:33:14.489Z,27.70
2022-12-01T06:34:14.144Z,26.30
2022-12-01T06:35:14.129Z,30.30
2022-12-01T06:36:14.130Z,27.00
2022-12-01T06:37:14.090Z,32.10
2022-12-01T06:38:14.384Z,31.40
2022-12-01T06:39:14.077Z,34.00
2022-12-01T06:40:14.085Z,27.20
2022-12-01T06:41:14.065Z,26.60
2022-12-01T06:42:14.063Z,28.70
2022-12-01T06:43:14.042Z,26.30
2022-12-01T06:44:14.508Z,30.70
2022-12-01T06:45:14.009Z,29.80
2022-12-01T06:46:14.090Z,27.80
2022-12-01T06:47:13.963Z,25.80
2022-12-01T06:48:14.300Z,25.50
2022-12-01T06:49:13.977Z,27.30
2022-12-01T06:50:13.940Z,25.10
2022-12-01T06:51:13.940Z,25.60
2022-12-01T06:52:13.917Z,26.00
2022-12-01T06:53:13.892Z,25.30
2022-12-01T06:54:14.149Z,23.20
2022-12-01T06:55:14.115Z,23.10
2022-12-01T06:56:13.875Z,23.60
2022-12-01T06:57:13.892Z,25.20
2022-12-01T06:58:13.868Z,25.30
2022-12-01T06:59:13.846Z,24.70
2022-12-01T07:00:14.034Z,23.20
2022-12-01T07:01:13.883Z,24.90
2022-12-01T07:02:13.990Z,20.10
2022-12-01T07:03:13.775Z,26.60
2022-12-01T07:04:13.800Z,25.00
2022-12-01T07:05:13.780Z,25.20
2022-12-01T07:06:13.755Z,24.80
2022-12-01T07:07:13.753Z,27.40
2022-12-01T07:08:14.026Z,26.30
2022-12-01T07:09:13.731Z,26.90
2022-12-01T07:10:13.724Z,26.70
2022-12-01T07:11:13.678Z,27.00
2022-12-01T07:12:13.713Z,26.50
2022-12-01T07:13:13.684Z,25.90
2022-12-01T07:14:13.948Z,29.50
2022-12-01T07:15:13.641Z,31.00
2022-12-01T07:16:13.676Z,25.80
2022-12-01T07:17:13.628Z,31.50
2022-12-01T07:18:13.633Z,25.40
2022-12-01T07:19:13.615Z,24.90
2022-12-01T07:20:14.110Z,28.00
2022-12-01T07:21:13.558Z,26.20
2022-12-01T07:22:13.584Z,25.20
2022-12-01T07:23:13.824Z,27.30
2022-12-01T07:24:13.538Z,27.00
2022-12-01T07:25:13.519Z,26.70
2022-12-01T07:26:13.517Z,27.20
2022-12-01T07:27:13.835Z,26.80
2022-12-01T07:28:13.515Z,25.60
2022-12-01T07:29:13.470Z,22.60
2022-12-01T07:30:13.501Z,26.10
2022-12-01T07:31:13.503Z,25.10
2022-12-01T07:32:13.449Z,27.00
2022-12-01T07:33:13.670Z,26.20
2022-12-01T07:34:13.427Z,25.20
2022-12-01T07:35:13.430Z,25.10
2022-12-01T07:36:13.399Z,24.30
2022-12-01T07:37:13.379Z,24.40
2022-12-01T07:38:17.802Z,24.90
2022-12-01T07:39:14.360Z,24.70
2022-12-01T07:40:13.353Z,27.30
2022-12-01T07:41:13.333Z,27.90
2022-12-01T07:42:13.356Z,26.80
2022-12-01T07:43:13.310Z,25.90
2022-12-01T07:44:13.620Z,24.90
2022-12-01T07:45:13.532Z,26.50
2022-12-01T07:46:18.721Z,27.00
2022-12-01T07:47:14.655Z,27.00
2022-12-01T07:48:13.260Z,26.40
2022-12-01T07:49:13.239Z,32.60
2022-12-01T07:50:13.235Z,27.40
2022-12-01T07:51:13.211Z,31.30
2022-12-01T07:52:13.238Z,27.90
2022-12-01T07:53:13.229Z,25.90
2022-12-01T07:54:13.193Z,29.40
2022-12-01T07:55:13.164Z,26.50
2022-12-01T07:56:13.189Z,26.30
2022-12-01T07:57:13.169Z,26.00
2022-12-01T07:58:20.206Z,26.10
2022-12-01T07:59:13.120Z,26.40
2022-12-01T08:00:13.155Z,25.90
2022-12-01T08:01:13.225Z,29.60
2022-12-01T08:02:13.283Z,28.00
2022-12-01T08:03:13.382Z,28.60
2022-12-01T08:04:13.105Z,28.20
2022-12-01T08:05:13.102Z,28.70
2022-12-01T08:06:13.072Z,27.20
2022-12-01T08:07:13.029Z,27.70
2022-12-01T08:08:13.131Z,27.00
2022-12-01T08:09:13.012Z,29.30
2022-12-01T08:10:13.349Z,28.10
2022-12-01T08:11:13.024Z,24.50
2022-12-01T08:12:12.991Z,27.50
2022-12-01T08:13:17.328Z,32.10
2022-12-01T08:14:12.970Z,31.30
2022-12-01T08:15:13.253Z,28.80
2022-12-01T08:16:13.029Z,28.70
2022-12-01T08:17:12.913Z,28.40
2022-12-01T08:18:12.934Z,27.70
2022-12-01T08:19:12.919Z,24.40
2022-12-01T08:20:12.893Z,29.40
2022-12-01T08:21:12.881Z,29.40
2022-12-01T08:22:12.894Z,27.90
2022-12-01T08:23:12.844Z,26.30
2022-12-01T08:24:12.871Z,31.90
2022-12-01T08:25:12.842Z,29.30
2022-12-01T08:26:12.842Z,28.10
2022-12-01T08:27:12.812Z,29.40
2022-12-01T08:28:12.820Z,26.80
2022-12-01T08:29:18.512Z,27.00
2022-12-01T08:30:13.810Z,27.90
2022-12-01T08:31:12.817Z,27.10
2022-12-01T08:32:12.979Z,31.10
2022-12-01T08:33:12.775Z,27.60
2022-12-01T08:34:13.048Z,26.50
2022-12-01T08:35:12.696Z,29.90
2022-12-01T08:36:12.698Z,31.30
2022-12-01T08:37:12.903Z,30.20
2022-12-01T08:38:12.676Z,25.20
2022-12-01T08:39:12.646Z,26.70
2022-12-01T08:40:12.657Z,29.10
2022-12-01T08:41:12.626Z,27.70
2022-12-01T08:42:12.625Z,26.40
2022-12-01T08:43:23.050Z,28.30
2022-12-01T08:44:13.683Z,29.50
2022-12-01T08:45:12.705Z,22.50
2022-12-01T08:46:12.644Z,26.40
2022-12-01T08:47:17.252Z,26.20
2022-12-01T08:48:13.803Z,22.70
2022-12-01T08:49:12.531Z,23.40
2022-12-01T08:50:12.557Z,26.80
2022-12-01T08:51:12.563Z,29.30
2022-12-01T08:52:12.508Z,29.70
2022-12-01T08:53:12.487Z,28.00
2022-12-01T08:54:12.513Z,27.00
2022-12-01T08:55:12.524Z,26.30
2022-12-01T08:56:12.494Z,25.10
2022-12-01T08:57:12.438Z,24.60
2022-12-01T08:58:12.465Z,25.70
2022-12-01T08:59:12.428Z,33.40
2022-12-01T09:00:12.419Z,28.20
2022-12-01T09:01:12.427Z,27.90
2022-12-01T09:02:12.471Z,29.20
2022-12-01T09:03:12.474Z,29.20
2022-12-01T09:04:12.370Z,28.60
2022-12-01T09:05:12.350Z,28.20
2022-12-01T09:06:12.377Z,25.80
2022-12-01T09:07:12.321Z,30.30
2022-12-01T09:08:12.609Z,29.20
2022-12-01T09:09:12.300Z,28.10
2022-12-01T09:10:12.338Z,25.00
2022-12-01T09:11:12.271Z,25.30
2022-12-01T09:12:12.280Z,26.00
2022-12-01T09:13:12.279Z,25.00
2022-12-01T09:14:12.571Z,22.90
2022-12-01T09:15:12.232Z,23.60
2022-12-01T09:16:12.302Z,22.70
2022-12-01T09:17:12.239Z,20.90
2022-12-01T09:18:12.232Z,19.70
2022-12-01T09:19:13.372Z,21.10
2022-12-01T09:20:12.210Z,19.10
2022-12-01T09:21:12.190Z,17.60
2022-12-01T09:22:12.174Z,17.40
2022-12-01T09:23:12.159Z,17.80
2022-12-01T09:24:12.141Z,16.30
2022-12-01T09:25:12.343Z,17.10
2022-12-01T09:26:13.757Z,17.40
2022-12-01T09:27:12.084Z,16.50
2022-12-01T09:28:12.111Z,21.70
2022-12-01T09:29:12.065Z,16.50
2022-12-01T09:30:12.099Z,18.30
2022-12-01T09:31:12.150Z,17.40
2022-12-01T09:32:12.374Z,18.00
2022-12-01T09:33:12.042Z,16.80
2022-12-01T09:34:12.027Z,18.10
2022-12-01T09:35:12.022Z,18.40
2022-12-01T09:36:12.020Z,18.50
2022-12-01T09:37:12.201Z,17.30
2022-12-01T09:38:11.974Z,19.00
2022-12-01T09:39:12.291Z,15.90
2022-12-01T09:40:11.972Z,19.10
2022-12-01T09:41:11.941Z,17.50
2022-12-01T09:42:11.926Z,16.60
2022-12-01T09:43:11.930Z,18.80
2022-12-01T09:44:12.183Z,18.40
2022-12-01T09:45:11.902Z,17.50
2022-12-01T09:46:12.007Z,18.50
2022-12-01T09:47:11.936Z,17.80
2022-12-01T09:48:11.883Z,18.20
2022-12-01T09:49:12.135Z,17.90
2022-12-01T09:50:11.874Z,17.60
2022-12-01T09:51:11.835Z,16.80
2022-12-01T09:52:11.806Z,17.20
2022-12-01T09:53:11.857Z,17.40
2022-12-01T09:54:11.786Z,16.20
2022-12-01T09:55:12.116Z,17.10
2022-12-01T09:56:13.131Z,19.00
2022-12-01T09:57:11.764Z,18.30
2022-12-01T09:58:12.083Z,18.00
2022-12-01T09:59:11.745Z,18.50
2022-12-01T10:00:11.761Z,17.70
2022-12-01T10:01:11.801Z,20.20
2022-12-01T10:02:11.761Z,21.70
2022-12-01T10:03:11.670Z,20.10
2022-12-01T10:04:11.688Z,20.10
2022-12-01T10:05:11.833Z,19.90
2022-12-01T10:06:27.245Z,21.20
2022-12-01T10:07:12.850Z,20.90
2022-12-01T10:08:11.656Z,20.40
2022-12-01T10:09:11.625Z,21.30
2022-12-01T10:10:11.602Z,20.60
2022-12-01T10:11:11.598Z,21.50
2022-12-01T10:12:11.571Z,20.40
2022-12-01T10:13:11.879Z,23.70
2022-12-01T10:14:15.146Z,22.00
2022-12-01T10:15:12.529Z,22.00
2022-12-01T10:16:11.575Z,21.50
2022-12-01T10:17:11.539Z,22.90
2022-12-01T10:18:11.538Z,19.60
2022-12-01T10:19:11.733Z,22.60
2022-12-01T10:20:11.486Z,20.70
2022-12-01T10:21:11.460Z,19.40
2022-12-01T10:22:11.463Z,21.70
2022-12-01T10:23:11.460Z,23.10
2022-12-01T10:24:11.762Z,23.30
2022-12-01T10:25:11.412Z,22.30
2022-12-01T10:26:11.439Z,23.00
2022-12-01T10:27:11.409Z,22.40
2022-12-01T10:28:11.420Z,22.50
2022-12-01T10:29:11.609Z,22.30
2022-12-01T10:30:11.391Z,23.80
2022-12-01T10:31:11.394Z,23.00
2022-12-01T10:32:11.373Z,26.10
2022-12-01T10:33:11.315Z,26.10
2022-12-01T10:34:11.341Z,25.30
2022-12-01T10:35:11.604Z,25.40
2022-12-01T10:36:11.312Z,28.90
2022-12-01T10:37:11.273Z,26.50
2022-12-01T10:38:11.329Z,27.40
2022-12-01T10:39:11.245Z,27.10
2022-12-01T10:40:11.292Z,27.30
2022-12-01T10:41:11.216Z,29.20
2022-12-01T10:42:11.224Z,29.20
2022-12-01T10:43:11.232Z,27.50
2022-12-01T10:44:11.206Z,28.70
2022-12-01T10:45:11.522Z,28.60
2022-12-01T10:46:11.217Z,31.60
2022-12-01T10:47:11.183Z,29.90
2022-12-01T10:48:11.164Z,28.90
2022-12-01T10:49:11.376Z,27.60
2022-12-01T10:50:11.162Z,31.40
2022-12-01T10:51:11.117Z,30.20
2022-12-01T10:52:11.124Z,30.70
2022-12-01T10:53:11.095Z,31.70
2022-12-01T10:54:11.069Z,31.30
2022-12-01T10:55:11.068Z,32.00
2022-12-01T10:56:11.303Z,30.50
2022-12-01T10:57:11.049Z,30.70
2022-12-01T10:58:11.065Z,29.30
2022-12-01T10:59:11.027Z,29.80
2022-12-01T11:00:11.047Z,31.40
2022-12-01T11:01:11.117Z,30.60
2022-12-01T11:02:11.151Z,35.00
2022-12-01T11:03:12.959Z,32.80
2022-12-01T11:04:10.984Z,32.00
2022-12-01T11:05:10.984Z,31.90
2022-12-01T11:06:10.934Z,31.80
2022-12-01T11:07:10.936Z,30.00
2022-12-01T11:08:10.986Z,32.50
2022-12-01T11:09:11.222Z,31.70
2022-12-01T11:10:10.911Z,32.60
2022-12-01T11:11:10.892Z,30.20
2022-12-01T11:12:10.889Z,32.00
2022-12-01T11:13:10.861Z,31.40
2022-12-01T11:14:11.068Z,33.50
2022-12-01T11:15:10.860Z,32.60
2022-12-01T11:16:10.838Z,33.00
2022-12-01T11:17:10.839Z,33.20
2022-12-01T11:18:10.800Z,33.80
2022-12-01T11:19:10.852Z,32.70
2022-12-01T11:20:10.842Z,32.30
2022-12-01T11:21:11.009Z,32.40
2022-12-01T11:22:10.769Z,34.20
2022-12-01T11:23:10.764Z,33.00
2022-12-01T11:24:10.749Z,30.70
2022-12-01T11:25:10.748Z,35.10
2022-12-01T11:26:10.705Z,30.50
2022-12-01T11:27:10.739Z,34.30
2022-12-01T11:28:10.697Z,35.30
2022-12-01T11:29:10.700Z,31.60
2022-12-01T11:30:10.674Z,32.10
2022-12-01T11:31:10.652Z,32.30
2022-12-01T11:32:10.693Z,33.50
2022-12-01T11:33:10.658Z,33.20
2022-12-01T11:34:10.640Z,35.40
2022-12-01T11:35:10.606Z,32.80
2022-12-01T11:36:16.003Z,31.50
2022-12-01T11:37:11.585Z,33.90
2022-12-01T11:38:28.944Z,34.50
2022-12-01T11:39:11.566Z,33.90
2022-12-01T11:40:10.562Z,35.30
2022-12-01T11:41:10.899Z,31.00
2022-12-01T11:42:10.535Z,31.90
2022-12-01T11:43:10.542Z,32.50
2022-12-01T11:44:28.509Z,33.70
2022-12-01T11:45:11.514Z,33.50
2022-12-01T11:46:10.720Z,33.50
2022-12-01T11:47:22.640Z,34.30
2022-12-01T11:48:11.481Z,35.10
2022-12-01T11:49:10.448Z,33.30
2022-12-01T11:50:10.452Z,35.20
2022-12-01T11:51:10.434Z,35.40
2022-12-01T11:52:10.654Z,33.80
2022-12-01T11:53:10.397Z,37.20
2022-12-01T11:54:10.407Z,32.20
2022-12-01T11:55:10.413Z,35.00
2022-12-01T11:56:10.385Z,32.10
2022-12-01T11:57:33.242Z,36.00
2022-12-01T11:58:11.540Z,32.60
2022-12-01T11:59:10.358Z,33.80
2022-12-01T12:00:10.311Z,36.00
2022-12-01T12:01:10.310Z,33.60
2022-12-01T12:02:10.359Z,32.90
2022-12-01T12:03:10.398Z,35.50
2022-12-01T12:04:10.291Z,36.90
2022-12-01T12:05:10.271Z,34.60
2022-12-01T12:07:11.546Z,36.30
2022-12-01T12:08:10.221Z,31.30
2022-12-01T12:09:10.282Z,34.20
2022-12-01T12:10:10.217Z,34.90
2022-12-01T12:11:10.534Z,33.90
2022-12-01T12:12:10.202Z,34.40
2022-12-01T12:13:13.148Z,32.80
2022-12-01T12:14:10.150Z,35.40
2022-12-01T12:15:10.172Z,35.60
2022-12-01T12:16:10.135Z,35.20
2022-12-01T12:17:10.280Z,34.40
2022-12-01T12:18:10.204Z,33.40
2022-12-01T12:19:10.105Z,35.00
2022-12-01T12:20:10.453Z,32.80
2022-12-01T12:21:10.101Z,31.70
2022-12-01T12:22:10.054Z,34.30
2022-12-01T12:23:10.391Z,30.70
2022-12-01T12:24:10.033Z,35.90
2022-12-01T12:25:10.079Z,33.20
2022-12-01T12:26:10.040Z,33.80
2022-12-01T12:27:10.014Z,33.90
2022-12-01T12:28:09.997Z,34.80
2022-12-01T12:29:13.837Z,33.50
2022-12-01T12:30:09.990Z,31.70
2022-12-01T12:31:10.069Z,32.10
2022-12-01T12:32:09.939Z,35.20
2022-12-01T12:33:09.964Z,32.30
2022-12-01T12:34:09.942Z,33.50
2022-12-01T12:35:10.272Z,32.90
2022-12-01T12:36:09.953Z,33.20
2022-12-01T12:37:09.938Z,32.40
2022-12-01T12:38:09.904Z,34.20
2022-12-01T12:39:15.096Z,36.50
2022-12-01T12:40:10.873Z,35.40
2022-12-01T12:41:09.845Z,31.80
2022-12-01T12:42:09.867Z,31.40
2022-12-01T12:43:09.864Z,31.50
2022-12-01T12:44:09.824Z,34.60
2022-12-01T12:45:09.808Z,31.30
2022-12-01T12:46:09.879Z,32.50
2022-12-01T12:47:09.810Z,40.10
2022-12-01T12:48:09.783Z,34.50
2022-12-01T12:49:25.526Z,35.40
2022-12-01T12:50:10.755Z,34.30
2022-12-01T12:51:09.726Z,37.50
2022-12-01T12:52:09.735Z,41.30
2022-12-01T12:53:09.738Z,44.70